sensor_id;sensor_type;location;lat;lon;timestamp;pressure;altitude;pressure_sealevel;temperature;humidity
9415;BME280;4746;35.664;139.738;2022-11-20T00:01:32;101325.81;;;17.73;44.86
9415;BME280;4746;35.664;139.738;2022-11-20T00:04:00;101324.03;;;17.81;44.62
9415;BME280;4746;35.664;139.738;2022-11-20T00:06:29;101335.25;;;17.87;44.39
9415;BME280;4746;35.664;139.738;2022-11-20T00:08:59;101349.94;;;17.88;44.36
9415;BME280;4746;35.664;139.738;2022-11-20T00:11:30;101343.03;;;17.93;44.18
9415;BME280;4746;35.664;139.738;2022-11-20T00:14:01;101342.09;;;18.03;44.31
9415;BME280;4746;35.664;139.738;2022-11-20T00:16:32;101343.78;;;18.10;44.35
9415;BME280;4746;35.664;139.738;2022-11-20T00:19:00;101339.41;;;18.16;43.61
9415;BME280;4746;35.664;139.738;2022-11-20T00:21:29;101354.13;;;18.17;43.77
9415;BME280;4746;35.664;139.738;2022-11-20T00:23:58;101349.78;;;18.16;43.81
9415;BME280;4746;35.664;139.738;2022-11-20T00:26:28;101354.16;;;18.10;43.57
9415;BME280;4746;35.664;139.738;2022-11-20T00:28:58;101366.28;;;18.04;44.07
9415;BME280;4746;35.664;139.738;2022-11-20T00:31:27;101362.03;;;17.97;44.19
9415;BME280;4746;35.664;139.738;2022-11-20T00:33:55;101352.50;;;17.93;44.41
9415;BME280;4746;35.664;139.738;2022-11-20T00:36:26;101353.41;;;17.93;44.39
9415;BME280;4746;35.664;139.738;2022-11-20T00:38:57;101343.94;;;17.85;44.27
9415;BME280;4746;35.664;139.738;2022-11-20T00:41:27;101352.59;;;17.76;44.69
9415;BME280;4746;35.664;139.738;2022-11-20T00:43:56;101346.59;;;17.67;45.15
9415;BME280;4746;35.664;139.738;2022-11-20T00:46:26;101333.59;;;17.65;44.80
9415;BME280;4746;35.664;139.738;2022-11-20T00:48:54;101337.94;;;17.62;45.12
9415;BME280;4746;35.664;139.738;2022-11-20T00:51:26;101315.47;;;17.65;45.05
9415;BME280;4746;35.664;139.738;2022-11-20T00:53:59;101311.16;;;17.70;44.99
9415;BME280;4746;35.664;139.738;2022-11-20T00:56:29;101315.44;;;17.74;45.05
9415;BME280;4746;35.664;139.738;2022-11-20T00:58:59;101305.91;;;17.84;44.79
9415;BME280;4746;35.664;139.738;2022-11-20T01:01:28;101301.50;;;17.95;44.58
9415;BME280;4746;35.664;139.738;2022-11-20T01:03:59;101304.81;;;18.14;44.68
9415;BME280;4746;35.664;139.738;2022-11-20T01:06:38;101293.56;;;18.29;44.01
9415;BME280;4746;35.664;139.738;2022-11-20T01:09:10;101288.25;;;18.44;43.74
9415;BME280;4746;35.664;139.738;2022-11-20T01:11:43;101282.13;;;18.48;43.41
9415;BME280;4746;35.664;139.738;2022-11-20T01:14:16;101277.81;;;18.50;43.49
9415;BME280;4746;35.664;139.738;2022-11-20T01:16:49;101266.44;;;18.61;43.39
9415;BME280;4746;35.664;139.738;2022-11-20T01:19:20;101246.47;;;18.71;43.24
9415;BME280;4746;35.664;139.738;2022-11-20T01:21:52;101253.31;;;18.81;43.28
9415;BME280;4746;35.664;139.738;2022-11-20T01:24:21;101258.28;;;19.01;42.99
9415;BME280;4746;35.664;139.738;2022-11-20T01:26:51;101251.22;;;19.15;42.59
9415;BME280;4746;35.664;139.738;2022-11-20T01:29:24;101243.34;;;19.23;42.35
9415;BME280;4746;35.664;139.738;2022-11-20T01:31:52;101239.91;;;19.21;42.32
9415;BME280;4746;35.664;139.738;2022-11-20T01:34:23;101249.53;;;19.11;42.66
9415;BME280;4746;35.664;139.738;2022-11-20T01:36:52;101262.63;;;18.98;42.44
9415;BME280;4746;35.664;139.738;2022-11-20T01:39:24;101258.44;;;18.83;42.73
9415;BME280;4746;35.664;139.738;2022-11-20T01:41:54;101254.25;;;18.71;43.29
9415;BME280;4746;35.664;139.738;2022-11-20T01:44:59;101257.78;;;18.62;42.90
9415;BME280;4746;35.664;139.738;2022-11-20T01:47:43;101266.56;;;18.48;42.79
9415;BME280;4746;35.664;139.738;2022-11-20T01:50:26;101262.31;;;18.39;43.33
9415;BME280;4746;35.664;139.738;2022-11-20T01:53:09;101252.88;;;18.29;43.56
9415;BME280;4746;35.664;139.738;2022-11-20T01:55:51;101246.00;;;18.25;43.87
9415;BME280;4746;35.664;139.738;2022-11-20T01:58:32;101242.56;;;18.22;43.82
9415;BME280;4746;35.664;139.738;2022-11-20T02:01:06;101241.72;;;18.20;44.32
9415;BME280;4746;35.664;139.738;2022-11-20T02:03:33;101235.66;;;18.21;44.12
9415;BME280;4746;35.664;139.738;2022-11-20T02:06:26;101235.63;;;18.25;43.74
9415;BME280;4746;35.664;139.738;2022-11-20T02:08:56;101224.41;;;18.22;43.95
9415;BME280;4746;35.664;139.738;2022-11-20T02:11:24;101234.78;;;18.22;43.93
9415;BME280;4746;35.664;139.738;2022-11-20T02:13:51;101230.47;;;18.21;44.10
9415;BME280;4746;35.664;139.738;2022-11-20T02:16:30;101227.84;;;18.27;43.41
9415;BME280;4746;35.664;139.738;2022-11-20T02:19:04;101221.78;;;18.25;44.01
9415;BME280;4746;35.664;139.738;2022-11-20T02:21:43;101218.31;;;18.29;43.99
9415;BME280;4746;35.664;139.738;2022-11-20T02:24:19;101207.91;;;18.30;43.84
9415;BME280;4746;35.664;139.738;2022-11-20T02:27:05;101209.53;;;18.40;43.76
9415;BME280;4746;35.664;139.738;2022-11-20T02:29:37;101210.38;;;18.44;43.75
9415;BME280;4746;35.664;139.738;2022-11-20T02:32:05;101205.97;;;18.50;43.67
9415;BME280;4746;35.664;139.738;2022-11-20T02:34:33;101192.06;;;18.57;43.77
9415;BME280;4746;35.664;139.738;2022-11-20T02:37:00;101177.41;;;18.55;43.88
9415;BME280;4746;35.664;139.738;2022-11-20T02:39:29;101174.78;;;18.55;43.75
9415;BME280;4746;35.664;139.738;2022-11-20T02:41:57;101187.75;;;18.58;43.83
9415;BME280;4746;35.664;139.738;2022-11-20T02:44:25;101175.59;;;18.60;43.29
9415;BME280;4746;35.664;139.738;2022-11-20T02:46:52;101188.63;;;18.57;43.46
9415;BME280;4746;35.664;139.738;2022-11-20T02:49:20;101166.13;;;18.56;43.40
9415;BME280;4746;35.664;139.738;2022-11-20T02:51:47;101163.53;;;18.57;43.57
9415;BME280;4746;35.664;139.738;2022-11-20T02:54:15;101160.91;;;18.59;43.60
9415;BME280;4746;35.664;139.738;2022-11-20T02:56:43;101162.59;;;18.61;43.93
9415;BME280;4746;35.664;139.738;2022-11-20T02:59:10;101153.06;;;18.65;43.61
9415;BME280;4746;35.664;139.738;2022-11-20T03:01:38;101154.84;;;18.60;43.82
9415;BME280;4746;35.664;139.738;2022-11-20T03:04:06;101135.84;;;18.58;44.16
9415;BME280;4746;35.664;139.738;2022-11-20T03:06:33;101130.59;;;18.61;43.90
9415;BME280;4746;35.664;139.738;2022-11-20T03:09:01;101117.59;;;18.64;43.94
9415;BME280;4746;35.664;139.738;2022-11-20T03:11:29;101107.22;;;18.62;43.26
9415;BME280;4746;35.664;139.738;2022-11-20T03:13:56;101117.66;;;18.59;43.41
9415;BME280;4746;35.664;139.738;2022-11-20T03:16:24;101109.84;;;18.61;43.52
9415;BME280;4746;35.664;139.738;2022-11-20T03:18:53;101097.75;;;18.58;43.19
9415;BME280;4746;35.664;139.738;2022-11-20T03:21:21;101104.69;;;18.58;43.38
9415;BME280;4746;35.664;139.738;2022-11-20T03:23:48;101114.19;;;18.57;43.67
9415;BME280;4746;35.664;139.738;2022-11-20T03:26:23;101099.50;;;18.58;43.48
9415;BME280;4746;35.664;139.738;2022-11-20T03:28:57;101106.44;;;18.56;43.64
9415;BME280;4746;35.664;139.738;2022-11-20T03:31:28;101095.22;;;18.55;43.45
9415;BME280;4746;35.664;139.738;2022-11-20T03:33:58;101078.81;;;18.52;43.65
9415;BME280;4746;35.664;139.738;2022-11-20T03:36:26;101067.53;;;18.51;43.75
9415;BME280;4746;35.664;139.738;2022-11-20T03:38:58;101064.91;;;18.56;43.63
9415;BME280;4746;35.664;139.738;2022-11-20T03:41:31;101062.25;;;18.60;43.56
9415;BME280;4746;35.664;139.738;2022-11-20T03:44:02;101068.28;;;18.62;43.71
9415;BME280;4746;35.664;139.738;2022-11-20T03:46:30;101064.72;;;18.71;43.60
9415;BME280;4746;35.664;139.738;2022-11-20T03:48:59;101049.13;;;18.72;43.54
9415;BME280;4746;35.664;139.738;2022-11-20T03:51:30;101054.34;;;18.72;43.56
9415;BME280;4746;35.664;139.738;2022-11-20T03:54:02;101045.63;;;18.75;43.51
9415;BME280;4746;35.664;139.738;2022-11-20T03:56:34;101043.84;;;18.80;43.46
9415;BME280;4746;35.664;139.738;2022-11-20T03:59:05;101047.22;;;18.84;43.58
9415;BME280;4746;35.664;139.738;2022-11-20T04:01:36;101040.28;;;18.86;43.55
9415;BME280;4746;35.664;139.738;2022-11-20T04:04:05;101030.72;;;18.90;43.58
9415;BME280;4746;35.664;139.738;2022-11-20T04:06:38;101035.88;;;18.91;43.38
9415;BME280;4746;35.664;139.738;2022-11-20T04:09:06;101035.00;;;18.92;43.66
9415;BME280;4746;35.664;139.738;2022-11-20T04:11:39;101030.56;;;19.00;43.62
9415;BME280;4746;35.664;139.738;2022-11-20T04:14:15;101023.53;;;19.05;43.29
9415;BME280;4746;35.664;139.738;2022-11-20T04:16:43;101022.69;;;19.09;43.43
9415;BME280;4746;35.664;139.738;2022-11-20T04:19:15;101025.19;;;19.15;42.92
9415;BME280;4746;35.664;139.738;2022-11-20T04:21:44;101026.97;;;19.12;43.53
9415;BME280;4746;35.664;139.738;2022-11-20T04:24:11;101028.78;;;19.04;43.54
9415;BME280;4746;35.664;139.738;2022-11-20T04:26:42;101028.00;;;18.97;43.27
9415;BME280;4746;35.664;139.738;2022-11-20T04:29:12;101026.28;;;18.96;43.67
9415;BME280;4746;35.664;139.738;2022-11-20T04:31:39;101005.53;;;18.93;43.51
9415;BME280;4746;35.664;139.738;2022-11-20T04:34:07;100992.53;;;18.93;43.69
9415;BME280;4746;35.664;139.738;2022-11-20T04:36:35;100984.81;;;18.90;43.86
9415;BME280;4746;35.664;139.738;2022-11-20T04:39:05;100992.56;;;18.92;43.89
9415;BME280;4746;35.664;139.738;2022-11-20T04:41:36;100992.53;;;18.93;44.05
9415;BME280;4746;35.664;139.738;2022-11-20T04:44:06;100988.19;;;18.95;43.93
9415;BME280;4746;35.664;139.738;2022-11-20T04:46:42;100989.09;;;18.96;44.04
9415;BME280;4746;35.664;139.738;2022-11-20T04:49:11;100988.25;;;18.92;43.85
9415;BME280;4746;35.664;139.738;2022-11-20T04:51:39;100990.03;;;18.87;44.30
9415;BME280;4746;35.664;139.738;2022-11-20T04:54:06;100984.91;;;18.84;44.16
9415;BME280;4746;35.664;139.738;2022-11-20T04:56:34;100989.25;;;18.84;44.60
9415;BME280;4746;35.664;139.738;2022-11-20T04:59:03;101000.47;;;18.84;44.72
9415;BME280;4746;35.664;139.738;2022-11-20T05:01:30;101001.41;;;18.81;44.67
9415;BME280;4746;35.664;139.738;2022-11-20T05:03:59;101006.66;;;18.76;44.96
9415;BME280;4746;35.664;139.738;2022-11-20T05:06:26;101017.06;;;18.76;45.07
9415;BME280;4746;35.664;139.738;2022-11-20T05:08:55;101003.22;;;18.76;44.99
9415;BME280;4746;35.664;139.738;2022-11-20T05:11:23;101009.31;;;18.72;45.17
9415;BME280;4746;35.664;139.738;2022-11-20T05:13:52;101015.41;;;18.69;45.19
9415;BME280;4746;35.664;139.738;2022-11-20T05:16:22;101010.25;;;18.65;44.91
9415;BME280;4746;35.664;139.738;2022-11-20T05:18:53;101005.97;;;18.62;45.24
9415;BME280;4746;35.664;139.738;2022-11-20T05:21:21;101009.47;;;18.60;45.40
9415;BME280;4746;35.664;139.738;2022-11-20T05:23:49;101007.78;;;18.57;45.47
9415;BME280;4746;35.664;139.738;2022-11-20T05:26:20;101012.13;;;18.57;45.50
9415;BME280;4746;35.664;139.738;2022-11-20T05:28:49;101002.69;;;18.50;45.69
9415;BME280;4746;35.664;139.738;2022-11-20T05:31:22;101006.97;;;18.52;45.55
9415;BME280;4746;35.664;139.738;2022-11-20T05:33:50;101000.97;;;18.49;45.64
9415;BME280;4746;35.664;139.738;2022-11-20T05:36:17;101004.44;;;18.48;45.80
9415;BME280;4746;35.664;139.738;2022-11-20T05:38:46;101001.00;;;18.44;45.63
9415;BME280;4746;35.664;139.738;2022-11-20T05:41:20;101002.78;;;18.42;45.89
9415;BME280;4746;35.664;139.738;2022-11-20T05:43:50;100994.19;;;18.39;45.88
9415;BME280;4746;35.664;139.738;2022-11-20T05:46:20;100992.44;;;18.39;46.49
9415;BME280;4746;35.664;139.738;2022-11-20T05:48:48;100992.47;;;18.38;46.47
9415;BME280;4746;35.664;139.738;2022-11-20T05:51:19;101004.56;;;18.36;46.42
9415;BME280;4746;35.664;139.738;2022-11-20T05:53:47;101002.03;;;18.33;46.79
9415;BME280;4746;35.664;139.738;2022-11-20T05:56:21;101007.19;;;18.34;46.67
9415;BME280;4746;35.664;139.738;2022-11-20T05:58:49;101014.16;;;18.31;46.80
9415;BME280;4746;35.664;139.738;2022-11-20T06:01:21;101015.94;;;18.29;47.52
9415;BME280;4746;35.664;139.738;2022-11-20T06:03:50;101014.22;;;18.25;47.45
9415;BME280;4746;35.664;139.738;2022-11-20T06:06:19;101016.88;;;18.22;47.50
9415;BME280;4746;35.664;139.738;2022-11-20T06:08:48;101006.50;;;18.19;47.92
9415;BME280;4746;35.664;139.738;2022-11-20T06:11:17;101010.81;;;18.18;47.85
9415;BME280;4746;35.664;139.738;2022-11-20T06:13:45;101018.63;;;18.17;48.01
9415;BME280;4746;35.664;139.738;2022-11-20T06:16:17;101013.44;;;18.14;48.60
9415;BME280;4746;35.664;139.738;2022-11-20T06:18:45;101010.91;;;18.09;48.77
9415;BME280;4746;35.664;139.738;2022-11-20T06:21:19;101015.25;;;18.08;49.08
9415;BME280;4746;35.664;139.738;2022-11-20T06:23:48;101006.72;;;17.98;49.05
9415;BME280;4746;35.664;139.738;2022-11-20T06:26:26;101004.97;;;17.99;49.02
9415;BME280;4746;35.664;139.738;2022-11-20T06:28:54;100990.34;;;17.93;49.08
9415;BME280;4746;35.664;139.738;2022-11-20T06:31:26;100990.34;;;17.92;49.72
9415;BME280;4746;35.664;139.738;2022-11-20T06:33:54;100991.22;;;17.92;50.01
9415;BME280;4746;35.664;139.738;2022-11-20T06:36:22;100992.97;;;17.90;50.08
9415;BME280;4746;35.664;139.738;2022-11-20T06:38:50;100998.16;;;17.89;50.48
9415;BME280;4746;35.664;139.738;2022-11-20T06:41:21;101003.38;;;17.84;50.55
9415;BME280;4746;35.664;139.738;2022-11-20T06:43:50;100986.19;;;17.79;50.74
9415;BME280;4746;35.664;139.738;2022-11-20T06:46:19;101012.16;;;17.71;51.03
9415;BME280;4746;35.664;139.738;2022-11-20T06:48:48;100998.41;;;17.63;51.09
9415;BME280;4746;35.664;139.738;2022-11-20T06:51:16;101007.13;;;17.53;51.57
9415;BME280;4746;35.664;139.738;2022-11-20T06:53:43;100995.97;;;17.50;51.58
9415;BME280;4746;35.664;139.738;2022-11-20T06:56:11;101000.31;;;17.46;52.35
9415;BME280;4746;35.664;139.738;2022-11-20T06:58:38;101012.41;;;17.43;52.26
9415;BME280;4746;35.664;139.738;2022-11-20T07:01:15;101013.25;;;17.43;52.08
9415;BME280;4746;35.664;139.738;2022-11-20T07:03:43;101018.50;;;17.36;52.37
9415;BME280;4746;35.664;139.738;2022-11-20T07:06:11;101015.09;;;17.28;52.54
9415;BME280;4746;35.664;139.738;2022-11-20T07:08:38;101003.03;;;17.24;52.94
9415;BME280;4746;35.664;139.738;2022-11-20T07:11:08;101006.47;;;17.23;53.09
9415;BME280;4746;35.664;139.738;2022-11-20T07:13:35;101009.09;;;17.20;53.17
9415;BME280;4746;35.664;139.738;2022-11-20T07:16:06;101003.06;;;17.20;53.45
9415;BME280;4746;35.664;139.738;2022-11-20T07:18:35;101007.41;;;17.15;53.77
9415;BME280;4746;35.664;139.738;2022-11-20T07:21:06;101001.38;;;17.13;53.87
9415;BME280;4746;35.664;139.738;2022-11-20T07:23:34;100991.91;;;17.09;53.98
9415;BME280;4746;35.664;139.738;2022-11-20T07:26:10;100990.16;;;17.09;53.96
9415;BME280;4746;35.664;139.738;2022-11-20T07:28:38;100982.44;;;17.03;54.53
9415;BME280;4746;35.664;139.738;2022-11-20T07:31:06;100976.41;;;17.03;54.46
9415;BME280;4746;35.664;139.738;2022-11-20T07:33:34;100987.63;;;17.02;55.11
9415;BME280;4746;35.664;139.738;2022-11-20T07:36:02;100982.47;;;17.02;54.94
9415;BME280;4746;35.664;139.738;2022-11-20T07:38:30;100986.78;;;17.03;55.10
9415;BME280;4746;35.664;139.738;2022-11-20T07:40:58;100992.78;;;17.03;55.01
9415;BME280;4746;35.664;139.738;2022-11-20T07:43:28;101001.47;;;16.99;55.29
9415;BME280;4746;35.664;139.738;2022-11-20T07:45:59;100993.72;;;16.98;55.27
9415;BME280;4746;35.664;139.738;2022-11-20T07:48:27;101003.25;;;16.91;55.86
9415;BME280;4746;35.664;139.738;2022-11-20T07:50:56;101010.19;;;16.88;55.85
9415;BME280;4746;35.664;139.738;2022-11-20T07:53:24;101015.38;;;16.83;56.26
9415;BME280;4746;35.664;139.738;2022-11-20T07:55:52;101002.44;;;16.79;56.45
9415;BME280;4746;35.664;139.738;2022-11-20T07:58:21;101005.06;;;16.77;56.51
9415;BME280;4746;35.664;139.738;2022-11-20T08:00:48;101005.06;;;16.76;57.09
9415;BME280;4746;35.664;139.738;2022-11-20T08:03:16;100995.59;;;16.72;57.46
9415;BME280;4746;35.664;139.738;2022-11-20T08:05:44;101003.38;;;16.69;57.68
9415;BME280;4746;35.664;139.738;2022-11-20T08:08:11;101009.44;;;16.67;58.08
9415;BME280;4746;35.664;139.738;2022-11-20T08:10:39;101004.28;;;16.65;58.03
9415;BME280;4746;35.664;139.738;2022-11-20T08:13:08;101002.53;;;16.63;57.98
9415;BME280;4746;35.664;139.738;2022-11-20T08:15:54;101007.75;;;16.58;58.46
9415;BME280;4746;35.664;139.738;2022-11-20T08:18:21;101006.88;;;16.56;58.51
9415;BME280;4746;35.664;139.738;2022-11-20T08:20:49;101012.09;;;16.53;58.48
9415;BME280;4746;35.664;139.738;2022-11-20T08:23:16;101016.41;;;16.51;58.72
9415;BME280;4746;35.664;139.738;2022-11-20T08:25:48;101020.72;;;16.51;58.35
9415;BME280;4746;35.664;139.738;2022-11-20T08:28:16;101024.16;;;16.47;58.69
9415;BME280;4746;35.664;139.738;2022-11-20T08:30:43;101022.47;;;16.43;58.57
9415;BME280;4746;35.664;139.738;2022-11-20T08:33:12;101020.78;;;16.39;59.29
9415;BME280;4746;35.664;139.738;2022-11-20T08:35:40;101024.22;;;16.35;59.54
9415;BME280;4746;35.664;139.738;2022-11-20T08:38:09;101032.84;;;16.32;59.43
9415;BME280;4746;35.664;139.738;2022-11-20T08:40:36;101038.03;;;16.29;59.49
9415;BME280;4746;35.664;139.738;2022-11-20T08:43:04;101037.16;;;16.27;59.39
9415;BME280;4746;35.664;139.738;2022-11-20T08:45:32;101037.16;;;16.24;59.78
9415;BME280;4746;35.664;139.738;2022-11-20T08:48:04;101042.34;;;16.24;59.58
9415;BME280;4746;35.664;139.738;2022-11-20T08:50:31;101038.88;;;16.19;59.72
9415;BME280;4746;35.664;139.738;2022-11-20T08:53:08;101042.31;;;16.21;59.84
9415;BME280;4746;35.664;139.738;2022-11-20T08:55:35;101040.63;;;16.14;59.98
9415;BME280;4746;35.664;139.738;2022-11-20T08:58:08;101036.31;;;16.15;60.30
9415;BME280;4746;35.664;139.738;2022-11-20T09:00:36;101049.25;;;16.12;59.94
9415;BME280;4746;35.664;139.738;2022-11-20T09:03:03;101050.13;;;16.12;60.18
9415;BME280;4746;35.664;139.738;2022-11-20T09:05:31;101049.25;;;16.12;60.06
9415;BME280;4746;35.664;139.738;2022-11-20T09:08:01;101044.09;;;16.10;60.24
9415;BME280;4746;35.664;139.738;2022-11-20T09:10:28;101038.03;;;16.10;60.31
9415;BME280;4746;35.664;139.738;2022-11-20T09:12:56;101060.44;;;16.11;60.09
9415;BME280;4746;35.664;139.738;2022-11-20T09:15:25;101059.59;;;16.10;60.30
9415;BME280;4746;35.664;139.738;2022-11-20T09:17:54;101050.13;;;16.12;60.48
9415;BME280;4746;35.664;139.738;2022-11-20T09:20:23;101046.66;;;16.12;60.27
9415;BME280;4746;35.664;139.738;2022-11-20T09:22:51;101045.78;;;16.14;60.39
9415;BME280;4746;35.664;139.738;2022-11-20T09:25:19;101035.47;;;16.17;60.53
9415;BME280;4746;35.664;139.738;2022-11-20T09:27:46;101037.19;;;16.18;60.27
9415;BME280;4746;35.664;139.738;2022-11-20T09:30:15;101037.19;;;16.18;60.52
9415;BME280;4746;35.664;139.738;2022-11-20T09:32:43;101031.13;;;16.18;60.74
9415;BME280;4746;35.664;139.738;2022-11-20T09:35:11;101020.78;;;16.21;60.67
9415;BME280;4746;35.664;139.738;2022-11-20T09:37:39;101022.47;;;16.26;60.93
9415;BME280;4746;35.664;139.738;2022-11-20T09:40:18;101025.94;;;16.34;60.76
9415;BME280;4746;35.664;139.738;2022-11-20T09:46:01;101032.78;;;16.53;60.89
9415;BME280;4746;35.664;139.738;2022-11-20T09:52:09;101030.13;;;16.68;60.54
9415;BME280;4746;35.664;139.738;2022-11-20T09:54:41;101034.44;;;16.69;60.94
9415;BME280;4746;35.664;139.738;2022-11-20T09:57:15;101021.44;;;16.78;60.69
9415;BME280;4746;35.664;139.738;2022-11-20T09:59:58;101025.72;;;16.83;60.38
9415;BME280;4746;35.664;139.738;2022-11-20T10:02:53;101018.84;;;16.81;60.10
9415;BME280;4746;35.664;139.738;2022-11-20T10:05:30;101016.25;;;16.78;60.16
9415;BME280;4746;35.664;139.738;2022-11-20T10:09:08;101029.19;;;16.81;59.56
9415;BME280;4746;35.664;139.738;2022-11-20T10:14:31;101017.16;;;16.74;59.54
9415;BME280;4746;35.664;139.738;2022-11-20T10:17:30;101009.41;;;16.72;59.32
9415;BME280;4746;35.664;139.738;2022-11-20T10:20:43;101007.69;;;16.70;59.42
9415;BME280;4746;35.664;139.738;2022-11-20T10:24:32;101010.28;;;16.66;59.52
9415;BME280;4746;35.664;139.738;2022-11-20T10:26:54;101014.66;;;16.59;59.75
9415;BME280;4746;35.664;139.738;2022-11-20T10:29:39;101009.47;;;16.56;59.74
9415;BME280;4746;35.664;139.738;2022-11-20T10:32:38;101006.03;;;16.54;59.61
9415;BME280;4746;35.664;139.738;2022-11-20T10:37:50;101020.72;;;16.43;59.87
9415;BME280;4746;35.664;139.738;2022-11-20T10:40:45;101019.00;;;16.42;60.00
9415;BME280;4746;35.664;139.738;2022-11-20T10:43:21;101021.63;;;16.39;60.14
9415;BME280;4746;35.664;139.738;2022-11-20T10:46:19;101003.47;;;16.42;60.12
9415;BME280;4746;35.664;139.738;2022-11-20T10:48:49;100998.34;;;16.35;60.25
9415;BME280;4746;35.664;139.738;2022-11-20T10:51:45;101000.06;;;16.36;60.11
9415;BME280;4746;35.664;139.738;2022-11-20T10:54:54;101011.31;;;16.27;60.74
9415;BME280;4746;35.664;139.738;2022-11-20T11:00:11;101029.41;;;16.26;60.92
9415;BME280;4746;35.664;139.738;2022-11-20T11:02:47;101019.91;;;16.25;60.98
9415;BME280;4746;35.664;139.738;2022-11-20T11:08:34;101015.59;;;16.25;60.82
9415;BME280;4746;35.664;139.738;2022-11-20T11:11:29;101018.19;;;16.22;60.74
9415;BME280;4746;35.664;139.738;2022-11-20T11:14:14;101025.09;;;16.19;61.29
9415;BME280;4746;35.664;139.738;2022-11-20T11:17:02;101033.72;;;16.13;61.40
9415;BME280;4746;35.664;139.738;2022-11-20T11:19:30;101021.69;;;16.06;61.46
9415;BME280;4746;35.664;139.738;2022-11-20T11:21:58;101013.94;;;15.99;61.86
9415;BME280;4746;35.664;139.738;2022-11-20T11:24:30;101016.53;;;16.00;62.31
9415;BME280;4746;35.664;139.738;2022-11-20T11:27:10;101011.38;;;16.00;62.08
9415;BME280;4746;35.664;139.738;2022-11-20T11:29:38;101008.78;;;15.98;62.43
9415;BME280;4746;35.664;139.738;2022-11-20T11:32:21;101003.63;;;16.00;62.64
9415;BME280;4746;35.664;139.738;2022-11-20T11:35:27;100999.31;;;15.99;62.13
9415;BME280;4746;35.664;139.738;2022-11-20T11:38:12;101007.91;;;15.96;62.53
9415;BME280;4746;35.664;139.738;2022-11-20T11:40:42;101003.63;;;15.92;62.91
9415;BME280;4746;35.664;139.738;2022-11-20T11:43:25;101013.97;;;15.96;62.71
9415;BME280;4746;35.664;139.738;2022-11-20T11:46:34;101007.94;;;15.97;62.53
9415;BME280;4746;35.664;139.738;2022-11-20T11:49:22;101001.88;;;15.99;62.75
9415;BME280;4746;35.664;139.738;2022-11-20T11:55:00;101007.03;;;16.02;62.85
9415;BME280;4746;35.664;139.738;2022-11-20T11:58:14;101014.78;;;16.05;62.64
9415;BME280;4746;35.664;139.738;2022-11-20T12:01:38;101006.16;;;16.09;62.44
9415;BME280;4746;35.664;139.738;2022-11-20T12:04:44;101002.72;;;16.07;62.22
9415;BME280;4746;35.664;139.738;2022-11-20T12:07:43;101000.13;;;16.07;62.58
9415;BME280;4746;35.664;139.738;2022-11-20T12:10:23;100982.03;;;16.06;62.51
9415;BME280;4746;35.664;139.738;2022-11-20T12:13:09;100961.34;;;16.06;62.61
9415;BME280;4746;35.664;139.738;2022-11-20T12:15:46;100992.38;;;16.07;62.57
9415;BME280;4746;35.664;139.738;2022-11-20T12:18:20;100999.28;;;16.07;62.65
9415;BME280;4746;35.664;139.738;2022-11-20T12:21:20;100997.53;;;16.10;62.74
9415;BME280;4746;35.664;139.738;2022-11-20T12:30:15;100985.50;;;16.03;62.78
9415;BME280;4746;35.664;139.738;2022-11-20T12:46:02;100957.09;;;15.95;62.56
9415;BME280;4746;35.664;139.738;2022-11-20T13:00:14;100939.03;;;15.89;63.39
9415;BME280;4746;35.664;139.738;2022-11-20T13:08:43;100929.56;;;15.86;63.78
9415;BME280;4746;35.664;139.738;2022-11-20T13:11:37;100921.78;;;15.91;63.21
9415;BME280;4746;35.664;139.738;2022-11-20T13:14:57;100908.00;;;15.92;63.18
9415;BME280;4746;35.664;139.738;2022-11-20T13:20:19;100894.22;;;15.87;63.71
9415;BME280;4746;35.664;139.738;2022-11-20T13:22:50;100908.00;;;15.86;63.76
9415;BME280;4746;35.664;139.738;2022-11-20T13:25:35;100887.34;;;15.89;64.28
9415;BME280;4746;35.664;139.738;2022-11-20T13:28:30;100896.78;;;15.94;63.74
9415;BME280;4746;35.664;139.738;2022-11-20T13:30:58;100889.94;;;15.89;63.75
9415;BME280;4746;35.664;139.738;2022-11-20T13:33:34;100894.22;;;15.91;63.60
9415;BME280;4746;35.664;139.738;2022-11-20T13:36:27;100889.03;;;15.93;63.39
9415;BME280;4746;35.664;139.738;2022-11-20T13:38:57;100877.00;;;15.86;63.52
9415;BME280;4746;35.664;139.738;2022-11-20T13:41:32;100872.69;;;15.85;63.98
9415;BME280;4746;35.664;139.738;2022-11-20T13:44:33;100886.44;;;15.93;63.77
9415;BME280;4746;35.664;139.738;2022-11-20T13:49:48;100856.31;;;15.95;63.76
9415;BME280;4746;35.664;139.738;2022-11-20T13:58:10;100867.50;;;15.98;64.01
9415;BME280;4746;35.664;139.738;2022-11-20T14:01:15;100864.03;;;15.96;63.65
9415;BME280;4746;35.664;139.738;2022-11-20T14:03:44;100867.50;;;15.91;63.89
9415;BME280;4746;35.664;139.738;2022-11-20T14:06:45;100868.34;;;15.96;63.99
9415;BME280;4746;35.664;139.738;2022-11-20T14:09:31;100856.28;;;15.92;64.17
9415;BME280;4746;35.664;139.738;2022-11-20T14:11:59;100851.13;;;15.87;64.16
9415;BME280;4746;35.664;139.738;2022-11-20T14:14:30;100858.91;;;15.89;64.11
9415;BME280;4746;35.664;139.738;2022-11-20T14:17:17;100845.97;;;15.92;63.62
9415;BME280;4746;35.664;139.738;2022-11-20T14:19:47;100839.09;;;15.88;64.33
9415;BME280;4746;35.664;139.738;2022-11-20T14:22:25;100837.38;;;15.87;64.50
9415;BME280;4746;35.664;139.738;2022-11-20T14:27:42;100849.47;;;15.80;65.02
9415;BME280;4746;35.664;139.738;2022-11-20T14:30:24;100841.69;;;15.79;64.69
9415;BME280;4746;35.664;139.738;2022-11-20T14:32:56;100841.72;;;15.77;64.89
9415;BME280;4746;35.664;139.738;2022-11-20T14:35:36;100829.66;;;15.76;64.72
9415;BME280;4746;35.664;139.738;2022-11-20T14:38:10;100842.59;;;15.75;65.22